createdAt,value
2019-03-16T00:03:15.608Z,90.30
2019-03-16T00:05:44.235Z,90.50
2019-03-16T00:08:12.892Z,90.80
2019-03-16T00:10:44.638Z,90.90
2019-03-16T00:13:15.935Z,90.80
2019-03-16T00:15:43.431Z,90.70
2019-03-16T00:18:12.088Z,90.60
2019-03-16T00:20:40.691Z,90.60
2019-03-16T00:23:09.324Z,90.50
2019-03-16T00:25:37.897Z,90.70
2019-03-16T00:28:07.452Z,90.20
2019-03-16T00:30:36.112Z,89.90
2019-03-16T00:33:04.796Z,90.10
2019-03-16T00:35:35.350Z,89.30
2019-03-16T00:38:04.091Z,89.30
2019-03-16T00:40:32.719Z,89.50
2019-03-16T00:43:02.645Z,89.20
2019-03-16T00:45:31.179Z,89.50
2019-03-16T00:47:59.863Z,89.50
2019-03-16T00:50:28.427Z,89.60
2019-03-16T00:52:57.018Z,89.70
2019-03-16T00:55:25.612Z,90.00
2019-03-16T00:57:54.244Z,90.10
2019-03-16T01:00:22.880Z,90.10
2019-03-16T01:02:51.510Z,90.00
2019-03-16T01:05:20.145Z,89.60
2019-03-16T01:07:48.779Z,89.10
2019-03-16T01:10:17.429Z,88.40
2019-03-16T01:12:46.008Z,88.40
2019-03-16T01:15:15.196Z,88.60
2019-03-16T01:17:43.790Z,88.40
2019-03-16T01:20:13.126Z,88.50
2019-03-16T01:22:41.685Z,88.90
2019-03-16T01:25:13.104Z,89.20
2019-03-16T01:27:41.666Z,89.20
2019-03-16T01:30:15.462Z,89.20
2019-03-16T01:32:44.203Z,89.10
2019-03-16T01:35:13.015Z,89.00
2019-03-16T01:37:41.610Z,88.70
2019-03-16T01:40:10.974Z,88.70
2019-03-16T01:42:39.641Z,89.00
2019-03-16T01:45:12.149Z,89.40
2019-03-16T01:47:39.952Z,89.50
2019-03-16T01:50:10.997Z,89.40
2019-03-16T01:52:39.631Z,89.20
2019-03-16T01:55:10.328Z,88.90
2019-03-16T01:57:38.917Z,88.60
2019-03-16T02:00:13.445Z,88.10
2019-03-16T02:02:54.330Z,87.70
2019-03-16T02:05:12.345Z,87.20
2019-03-16T02:07:41.062Z,86.70
2019-03-16T02:10:10.237Z,86.00
2019-03-16T02:12:38.796Z,85.80
2019-03-16T02:15:08.483Z,85.30
2019-03-16T02:17:37.162Z,84.70
2019-03-16T02:20:08.005Z,84.20
2019-03-16T02:22:36.604Z,83.50
2019-03-16T02:25:06.762Z,83.00
2019-03-16T02:27:35.357Z,82.40
2019-03-16T02:30:05.378Z,81.50
2019-03-16T02:32:33.956Z,81.40
2019-03-16T02:35:04.505Z,81.00
2019-03-16T02:37:33.083Z,80.60
2019-03-16T02:40:01.630Z,80.00
2019-03-16T02:42:30.193Z,79.40
2019-03-16T02:44:58.988Z,78.90
2019-03-16T02:47:27.541Z,78.80
2019-03-16T02:49:58.117Z,78.60
2019-03-16T02:52:30.400Z,78.50
2019-03-16T02:54:59.089Z,78.00
2019-03-16T02:57:27.699Z,78.30
2019-03-16T02:59:56.278Z,78.30
2019-03-16T03:02:24.878Z,78.20
2019-03-16T03:04:53.435Z,78.20
2019-03-16T03:07:22.006Z,78.10
2019-03-16T03:09:51.533Z,77.90
2019-03-16T03:12:20.111Z,77.70
2019-03-16T03:14:48.681Z,77.50
2019-03-16T03:17:17.296Z,77.50
2019-03-16T03:19:45.881Z,77.30
2019-03-16T03:22:14.469Z,77.10
2019-03-16T03:24:44.443Z,76.70
2019-03-16T03:27:15.386Z,76.50
2019-03-16T03:29:45.862Z,76.60
2019-03-16T03:32:14.461Z,76.20
2019-03-16T03:34:43.442Z,76.20
2019-03-16T03:37:11.977Z,76.10
2019-03-16T03:39:41.586Z,76.40
2019-03-16T03:42:10.222Z,76.10
2019-03-16T03:44:38.828Z,76.30
2019-03-16T03:47:07.448Z,76.20
2019-03-16T03:49:36.013Z,76.30
2019-03-16T03:52:04.653Z,76.00
2019-03-16T03:54:33.407Z,76.20
2019-03-16T03:57:01.991Z,76.40
2019-03-16T03:59:30.554Z,76.40
2019-03-16T04:01:59.217Z,76.30
2019-03-16T04:04:27.855Z,76.20
2019-03-16T04:06:56.488Z,76.30
2019-03-16T04:09:25.080Z,76.30
2019-03-16T04:11:53.651Z,76.40
2019-03-16T04:14:22.261Z,76.40
2019-03-16T04:16:50.875Z,76.40
2019-03-16T04:19:19.503Z,76.50
2019-03-16T04:21:48.069Z,76.60
2019-03-16T04:24:16.653Z,76.60
2019-03-16T04:26:45.232Z,76.70
2019-03-16T04:29:13.903Z,76.80
2019-03-16T04:31:42.479Z,76.80
2019-03-16T04:34:11.043Z,76.90
2019-03-16T04:36:39.697Z,76.90
2019-03-16T04:39:08.412Z,77.00
2019-03-16T04:41:37.022Z,77.30
2019-03-16T04:44:05.683Z,77.50
2019-03-16T04:46:34.252Z,77.60
2019-03-16T04:49:02.855Z,77.60
2019-03-16T04:51:32.284Z,77.80
2019-03-16T04:54:00.883Z,78.10
2019-03-16T04:56:29.418Z,78.30
2019-03-16T04:58:57.989Z,78.30
2019-03-16T05:01:26.542Z,78.40
2019-03-16T05:03:55.564Z,78.70
2019-03-16T05:06:25.172Z,78.90
2019-03-16T05:08:54.067Z,79.20
2019-03-16T05:11:24.635Z,79.40
2019-03-16T05:13:53.207Z,79.70
2019-03-16T05:16:22.145Z,80.00
2019-03-16T05:18:50.729Z,80.10
2019-03-16T05:21:19.284Z,80.30
2019-03-16T05:23:47.916Z,80.40
2019-03-16T05:26:16.572Z,80.70
2019-03-16T05:28:45.131Z,80.90
2019-03-16T05:31:13.700Z,81.10
2019-03-16T05:33:42.642Z,81.00
2019-03-16T05:36:12.221Z,81.10
2019-03-16T05:38:40.783Z,81.10
2019-03-16T05:41:09.336Z,81.10
2019-03-16T05:43:37.921Z,81.20
2019-03-16T05:46:06.500Z,82.10
2019-03-16T05:48:35.074Z,81.20
2019-03-16T05:51:03.677Z,81.20
2019-03-16T05:53:32.643Z,81.10
2019-03-16T05:56:01.346Z,81.20
2019-03-16T05:58:29.963Z,81.20
2019-03-16T06:00:58.545Z,81.90
2019-03-16T06:03:28.013Z,81.30
2019-03-16T06:05:56.634Z,81.80
2019-03-16T06:08:25.243Z,82.30
2019-03-16T06:10:53.906Z,82.70
2019-03-16T06:13:22.520Z,82.90
2019-03-16T06:15:51.094Z,83.10
2019-03-16T06:18:19.742Z,83.30
2019-03-16T06:20:48.357Z,83.50
2019-03-16T06:23:16.983Z,83.30
2019-03-16T06:25:45.906Z,83.20
2019-03-16T06:28:14.497Z,83.20
2019-03-16T06:30:44.233Z,83.00
2019-03-16T06:33:12.797Z,83.00
2019-03-16T06:35:41.730Z,83.00
2019-03-16T06:38:10.266Z,83.10
2019-03-16T06:40:39.193Z,83.00
2019-03-16T06:43:08.901Z,82.80
2019-03-16T06:45:38.433Z,83.90
2019-03-16T06:48:07.040Z,83.20
2019-03-16T06:50:35.757Z,83.60
2019-03-16T06:53:04.315Z,84.00
2019-03-16T06:55:32.898Z,84.50
2019-03-16T06:58:01.463Z,84.30
2019-03-16T07:00:30.062Z,84.50
2019-03-16T07:02:58.649Z,83.90
2019-03-16T07:05:37.550Z,83.00
2019-03-16T07:07:57.461Z,82.60
2019-03-16T07:10:26.058Z,82.90
2019-03-16T07:12:55.619Z,82.90
2019-03-16T07:15:24.547Z,81.50
2019-03-16T07:17:53.108Z,82.40
2019-03-16T07:20:21.690Z,80.40
2019-03-16T07:22:50.302Z,78.80
2019-03-16T07:25:19.064Z,79.10
2019-03-16T07:27:47.603Z,78.50
2019-03-16T07:30:16.257Z,77.90
2019-03-16T07:32:45.892Z,77.10
2019-03-16T07:35:14.551Z,77.30
2019-03-16T07:37:43.533Z,76.80
2019-03-16T07:40:19.992Z,76.50
2019-03-16T07:42:48.556Z,76.60
2019-03-16T07:45:17.227Z,77.30
2019-03-16T07:47:47.747Z,76.50
2019-03-16T07:50:18.433Z,76.50
2019-03-16T07:52:47.003Z,73.80
2019-03-16T07:55:15.840Z,73.30
2019-03-16T07:57:44.826Z,73.60
2019-03-16T08:00:13.658Z,74.60
2019-03-16T08:02:42.238Z,75.20
2019-03-16T08:05:18.158Z,75.60
2019-03-16T08:07:41.154Z,75.80
2019-03-16T08:10:12.984Z,76.20
2019-03-16T08:12:41.670Z,76.30
2019-03-16T08:15:11.779Z,76.20
2019-03-16T08:17:40.350Z,76.30
2019-03-16T08:20:10.382Z,76.60
2019-03-16T08:22:39.426Z,76.80
2019-03-16T08:25:13.306Z,76.50
2019-03-16T08:27:53.978Z,76.20
2019-03-16T08:30:13.692Z,76.20
2019-03-16T08:32:42.853Z,75.80
2019-03-16T08:35:11.546Z,75.80
2019-03-16T08:37:40.181Z,75.80
2019-03-16T08:40:10.429Z,76.10
2019-03-16T08:42:39.110Z,76.50
2019-03-16T08:45:11.487Z,76.50
2019-03-16T08:47:40.119Z,76.50
2019-03-16T08:50:10.224Z,76.60
2019-03-16T08:52:38.774Z,76.70
2019-03-16T08:55:08.708Z,76.30
2019-03-16T08:57:37.309Z,76.00
2019-03-16T09:00:09.582Z,75.90
2019-03-16T09:02:38.147Z,75.90
2019-03-16T09:05:07.817Z,76.20
2019-03-16T09:07:36.410Z,76.20
2019-03-16T09:10:06.963Z,76.20
2019-03-16T09:12:35.532Z,76.20
2019-03-16T09:15:06.521Z,76.40
2019-03-16T09:17:35.093Z,76.00
2019-03-16T09:20:04.956Z,75.90
2019-03-16T09:22:33.534Z,75.20
2019-03-16T09:25:02.073Z,75.20
2019-03-16T09:27:31.690Z,75.30
2019-03-16T09:30:00.375Z,75.40
2019-03-16T09:32:28.952Z,75.40
2019-03-16T09:34:57.513Z,74.90
2019-03-16T09:37:26.147Z,73.60
2019-03-16T09:39:54.742Z,73.30
2019-03-16T09:42:23.348Z,73.50
2019-03-16T09:44:51.951Z,73.70
2019-03-16T09:47:20.529Z,73.30
2019-03-16T09:49:49.067Z,73.70
2019-03-16T09:52:17.666Z,73.60
2019-03-16T09:54:47.283Z,73.20
2019-03-16T09:57:15.836Z,72.60
2019-03-16T09:59:44.392Z,71.80
2019-03-16T10:02:13.042Z,70.60
2019-03-16T10:04:41.680Z,70.50
2019-03-16T10:07:10.262Z,70.60
2019-03-16T10:09:39.162Z,70.70
2019-03-16T10:12:07.793Z,70.90
2019-03-16T10:14:37.379Z,70.90
2019-03-16T10:17:06.082Z,71.20
2019-03-16T10:19:34.680Z,71.40
2019-03-16T10:22:03.238Z,71.70
2019-03-16T10:24:31.802Z,71.70
2019-03-16T10:27:00.385Z,71.50
2019-03-16T10:29:28.972Z,71.50
2019-03-16T10:31:57.556Z,71.60
2019-03-16T10:34:26.135Z,72.00
2019-03-16T10:36:54.706Z,72.20
2019-03-16T10:39:23.312Z,72.30
2019-03-16T10:41:51.879Z,72.30
2019-03-16T10:44:20.454Z,72.60
2019-03-16T10:46:49.122Z,72.90
2019-03-16T10:49:17.682Z,73.00
2019-03-16T10:51:46.312Z,72.90
2019-03-16T10:54:14.938Z,72.90
2019-03-16T10:56:43.503Z,72.80
2019-03-16T10:59:12.066Z,72.80
2019-03-16T11:01:40.711Z,72.60
2019-03-16T11:04:09.352Z,72.60
2019-03-16T11:06:37.913Z,72.90
2019-03-16T11:09:07.169Z,72.70
2019-03-16T11:11:35.719Z,72.60
2019-03-16T11:14:04.358Z,72.80
2019-03-16T11:16:32.956Z,72.90
2019-03-16T11:19:01.527Z,72.40
2019-03-16T11:21:30.098Z,72.70
2019-03-16T11:23:58.679Z,72.50
2019-03-16T11:26:27.243Z,72.40
2019-03-16T11:29:08.073Z,72.60
2019-03-16T11:31:26.036Z,72.60
2019-03-16T11:33:54.644Z,72.50
2019-03-16T11:36:23.320Z,72.40
2019-03-16T11:38:51.870Z,72.40
2019-03-16T11:41:20.436Z,72.40
2019-03-16T11:43:49.438Z,72.40
2019-03-16T11:46:18.155Z,72.30
2019-03-16T11:48:46.751Z,72.00
2019-03-16T11:51:15.343Z,71.50
2019-03-16T11:53:43.922Z,71.20
2019-03-16T11:56:17.835Z,71.40
2019-03-16T11:58:42.779Z,71.20
2019-03-16T12:01:11.342Z,71.40
2019-03-16T12:03:39.953Z,71.50
2019-03-16T12:06:08.501Z,71.60
2019-03-16T12:08:39.588Z,71.60
2019-03-16T12:11:07.331Z,71.90
2019-03-16T12:13:35.907Z,72.10
2019-03-16T12:16:04.901Z,72.00
2019-03-16T12:18:33.493Z,71.70
2019-03-16T12:21:02.547Z,71.30
2019-03-16T12:23:31.451Z,70.90
2019-03-16T12:26:00.039Z,70.10
2019-03-16T12:28:28.594Z,70.20
2019-03-16T12:30:57.171Z,69.80
2019-03-16T12:33:25.775Z,69.10
2019-03-16T12:35:54.347Z,69.00
2019-03-16T12:38:22.928Z,68.80
2019-03-16T12:40:51.538Z,68.50
2019-03-16T12:43:20.104Z,68.10
2019-03-16T12:45:48.662Z,68.30
2019-03-16T12:48:17.292Z,68.20
2019-03-16T12:50:45.878Z,68.00
2019-03-16T12:53:15.355Z,67.80
2019-03-16T12:55:44.002Z,67.60
2019-03-16T12:58:12.568Z,66.70
2019-03-16T13:00:41.168Z,66.00
2019-03-16T13:03:09.756Z,65.70
2019-03-16T13:05:38.323Z,65.80
2019-03-16T13:08:06.891Z,66.00
2019-03-16T13:10:35.456Z,66.10
2019-03-16T13:13:04.075Z,66.10
2019-03-16T13:15:32.728Z,65.60
2019-03-16T13:18:01.259Z,65.40
2019-03-16T13:20:29.891Z,65.50
2019-03-16T13:22:58.471Z,65.80
2019-03-16T13:25:27.037Z,66.00
2019-03-16T13:27:55.653Z,66.40
2019-03-16T13:30:24.224Z,66.10
2019-03-16T13:32:52.790Z,66.00
2019-03-16T13:35:21.371Z,66.30
2019-03-16T13:37:50.344Z,66.20
2019-03-16T13:40:19.146Z,66.60
2019-03-16T13:42:47.850Z,66.10
2019-03-16T13:45:16.527Z,66.20
2019-03-16T13:47:45.475Z,65.90
2019-03-16T13:50:18.830Z,65.70
2019-03-16T13:52:47.810Z,64.90
2019-03-16T13:55:16.372Z,65.00
2019-03-16T13:57:45.001Z,64.70
2019-03-16T14:00:17.125Z,64.70
2019-03-16T14:02:47.805Z,64.80
2019-03-16T14:05:16.391Z,64.60
2019-03-16T14:07:45.457Z,64.40
2019-03-16T14:10:19.161Z,64.20
2019-03-16T14:12:47.734Z,64.00
2019-03-16T14:15:16.294Z,64.00
2019-03-16T14:17:45.192Z,64.10
2019-03-16T14:20:15.657Z,63.90
2019-03-16T14:22:44.299Z,63.50
2019-03-16T14:25:18.404Z,63.20
2019-03-16T14:27:47.023Z,63.10
2019-03-16T14:30:39.052Z,63.40
2019-03-16T14:32:51.573Z,63.60
2019-03-16T14:35:20.361Z,63.70
2019-03-16T14:37:49.813Z,64.40
2019-03-16T14:40:18.662Z,65.10
2019-03-16T14:42:47.435Z,65.90
2019-03-16T14:45:16.667Z,66.60
2019-03-16T14:47:45.267Z,67.10
2019-03-16T14:50:27.392Z,67.10
2019-03-16T14:52:55.984Z,67.00
2019-03-16T14:55:24.557Z,66.90
2019-03-16T14:57:53.131Z,67.30
2019-03-16T15:00:21.806Z,66.80
2019-03-16T15:02:50.478Z,68.50
2019-03-16T15:05:19.163Z,68.00
2019-03-16T15:07:49.774Z,68.20
2019-03-16T15:10:18.410Z,68.30
2019-03-16T15:12:47.046Z,68.60
2019-03-16T15:15:17.232Z,68.70
2019-03-16T15:17:45.863Z,68.70
2019-03-16T15:20:14.517Z,68.90
2019-03-16T15:22:43.250Z,69.10
2019-03-16T15:25:12.730Z,69.40
2019-03-16T15:27:41.289Z,69.80
2019-03-16T15:30:23.474Z,70.30
2019-03-16T15:32:52.190Z,71.10
2019-03-16T15:35:20.767Z,71.40
2019-03-16T15:37:49.370Z,71.70
2019-03-16T15:40:18.081Z,72.20
2019-03-16T15:42:46.685Z,72.60
2019-03-16T15:45:24.357Z,73.00
2019-03-16T15:47:57.610Z,73.00
2019-03-16T15:50:27.069Z,73.20
2019-03-16T15:52:55.650Z,73.50
2019-03-16T15:55:24.398Z,73.80
2019-03-16T15:58:07.252Z,73.80
2019-03-16T16:00:29.218Z,73.70
2019-03-16T16:02:58.235Z,73.90
2019-03-16T16:05:26.974Z,73.90
2019-03-16T16:07:55.576Z,73.80
2019-03-16T16:10:24.236Z,74.20
2019-03-16T16:12:52.830Z,74.30
2019-03-16T16:15:22.512Z,74.40
2019-03-16T16:17:51.157Z,74.40
2019-03-16T16:20:20.001Z,74.60
2019-03-16T16:22:48.641Z,74.50
2019-03-16T16:25:17.843Z,74.60
2019-03-16T16:27:46.408Z,74.50
2019-03-16T16:30:21.740Z,74.60
2019-03-16T16:32:50.316Z,74.70
2019-03-16T16:35:19.000Z,74.80
2019-03-16T16:37:47.632Z,74.90
2019-03-16T16:40:17.356Z,75.10
2019-03-16T16:42:45.991Z,75.30
2019-03-16T16:45:15.588Z,75.40
2019-03-16T16:47:44.239Z,75.70
2019-03-16T16:50:23.599Z,76.10
2019-03-16T16:52:52.377Z,76.30
2019-03-16T16:55:21.013Z,76.40
2019-03-16T16:57:49.588Z,76.20
2019-03-16T17:00:25.542Z,76.30
2019-03-16T17:02:54.165Z,76.30
2019-03-16T17:05:22.801Z,76.20
2019-03-16T17:07:52.373Z,76.10
2019-03-16T17:10:20.951Z,76.00
2019-03-16T17:12:49.610Z,75.90
2019-03-16T17:15:23.000Z,75.70
2019-03-16T17:17:52.060Z,75.70
2019-03-16T17:20:20.693Z,75.50
2019-03-16T17:22:49.278Z,75.40
2019-03-16T17:25:18.173Z,75.30
2019-03-16T17:27:46.775Z,75.10
2019-03-16T17:30:24.692Z,75.10
2019-03-16T17:32:53.588Z,75.20
2019-03-16T17:35:22.159Z,75.10
2019-03-16T17:37:51.165Z,75.90
2019-03-16T17:40:19.888Z,75.50
2019-03-16T17:42:48.468Z,75.50
2019-03-16T17:45:17.229Z,75.60
2019-03-16T17:47:46.836Z,75.80
2019-03-16T17:50:16.771Z,75.90
2019-03-16T17:52:45.351Z,76.00
2019-03-16T17:55:23.161Z,76.20
2019-03-16T17:57:52.085Z,76.30
2019-03-16T18:00:22.581Z,76.20
2019-03-16T18:02:52.722Z,76.20
2019-03-16T18:05:22.711Z,76.20
2019-03-16T18:07:51.337Z,76.30
2019-03-16T18:10:19.980Z,76.70
2019-03-16T18:12:48.700Z,76.70
2019-03-16T18:15:21.714Z,76.90
2019-03-16T18:17:50.276Z,77.10
2019-03-16T18:20:19.323Z,77.20
2019-03-16T18:22:48.343Z,77.30
2019-03-16T18:25:17.403Z,77.40
2019-03-16T18:27:46.098Z,77.30
2019-03-16T18:30:20.110Z,77.50
2019-03-16T18:32:48.756Z,77.60
2019-03-16T18:35:17.729Z,77.80
2019-03-16T18:37:46.345Z,77.90
2019-03-16T18:40:15.881Z,78.20
2019-03-16T18:42:44.433Z,78.70
2019-03-16T18:45:28.135Z,78.80
2019-03-16T18:47:56.770Z,78.90
2019-03-16T18:50:25.345Z,79.00
2019-03-16T18:52:53.973Z,79.00
2019-03-16T18:55:29.742Z,79.20
2019-03-16T18:57:58.299Z,79.10
2019-03-16T19:00:28.931Z,79.30
2019-03-16T19:02:57.568Z,79.50
2019-03-16T19:05:26.140Z,79.60
2019-03-16T19:07:54.817Z,79.90
2019-03-16T19:10:23.797Z,80.60
2019-03-16T19:12:52.400Z,79.70
2019-03-16T19:15:21.147Z,79.70
2019-03-16T19:17:58.738Z,79.80
2019-03-16T19:20:20.092Z,79.70
2019-03-16T19:22:48.775Z,79.90
2019-03-16T19:25:21.392Z,79.70
2019-03-16T19:27:50.073Z,79.80
2019-03-16T19:30:19.475Z,80.00
2019-03-16T19:32:48.080Z,80.20
2019-03-16T19:35:16.774Z,80.30
2019-03-16T19:37:45.354Z,80.20
2019-03-16T19:40:18.482Z,80.50
2019-03-16T19:42:47.450Z,80.40
2019-03-16T19:45:16.300Z,80.30
2019-03-16T19:47:46.200Z,80.10
2019-03-16T19:50:16.643Z,80.20
2019-03-16T19:52:45.228Z,80.40
2019-03-16T19:55:14.599Z,80.50
2019-03-16T19:57:44.705Z,80.60
2019-03-16T20:00:15.443Z,80.80
2019-03-16T20:02:51.427Z,82.10
2019-03-16T20:05:18.765Z,81.40
2019-03-16T20:07:47.405Z,81.30
2019-03-16T20:10:17.219Z,81.50
2019-03-16T20:12:45.836Z,81.50
2019-03-16T20:15:15.460Z,81.60
2019-03-16T20:17:44.149Z,81.90
2019-03-16T20:20:19.601Z,81.90
2019-03-16T20:22:48.294Z,82.10
2019-03-16T20:25:16.964Z,82.20
2019-03-16T20:27:45.580Z,82.30
2019-03-16T20:30:15.485Z,82.40
2019-03-16T20:32:44.060Z,82.40
2019-03-16T20:35:13.361Z,82.60
2019-03-16T20:37:41.900Z,82.70
2019-03-16T20:40:15.129Z,82.80
2019-03-16T20:42:43.801Z,82.90
2019-03-16T20:45:12.568Z,82.90
2019-03-16T20:47:41.398Z,82.90
2019-03-16T20:50:17.806Z,83.00
2019-03-16T20:52:47.603Z,83.10
2019-03-16T20:55:16.255Z,83.20
2019-03-16T20:57:44.830Z,83.20
2019-03-16T21:00:20.715Z,83.30
2019-03-16T21:02:49.282Z,83.30
2019-03-16T21:05:17.873Z,83.50
2019-03-16T21:07:46.468Z,83.70
2019-03-16T21:10:15.194Z,83.70
2019-03-16T21:12:43.795Z,83.80
2019-03-16T21:15:14.024Z,83.90
2019-03-16T21:17:42.754Z,83.90
2019-03-16T21:20:15.572Z,84.30
2019-03-16T21:22:44.309Z,84.50
2019-03-16T21:25:14.351Z,84.70
2019-03-16T21:27:43.024Z,84.60
2019-03-16T21:30:14.302Z,84.30
2019-03-16T21:32:42.874Z,84.00
2019-03-16T21:35:11.619Z,83.80
2019-03-16T21:37:40.496Z,83.60
2019-03-16T21:40:11.555Z,83.20
2019-03-16T21:42:40.125Z,83.10
2019-03-16T21:45:13.064Z,83.20
2019-03-16T21:47:41.674Z,83.10
2019-03-16T21:50:11.961Z,83.20
2019-03-16T21:52:40.609Z,83.20
2019-03-16T21:55:10.514Z,83.10
2019-03-16T21:57:39.164Z,83.20
2019-03-16T22:00:16.962Z,83.30
2019-03-16T22:02:45.519Z,83.40
2019-03-16T22:05:14.220Z,83.60
2019-03-16T22:07:43.919Z,83.70
2019-03-16T22:10:16.680Z,83.90
2019-03-16T22:12:45.385Z,83.70
2019-03-16T22:15:18.343Z,83.50
2019-03-16T22:17:46.956Z,83.60
2019-03-16T22:20:21.726Z,84.30
2019-03-16T22:22:50.359Z,83.40
2019-03-16T22:25:19.068Z,83.50
2019-03-16T22:27:47.967Z,83.60
2019-03-16T22:30:17.462Z,84.40
2019-03-16T22:32:46.039Z,83.50
2019-03-16T22:35:14.686Z,83.40
2019-03-16T22:37:44.298Z,83.40
2019-03-16T22:40:15.443Z,83.40
2019-03-16T22:42:44.101Z,83.40
2019-03-16T22:45:14.578Z,83.40
2019-03-16T22:47:43.293Z,83.20
2019-03-16T22:50:19.197Z,83.10
2019-03-16T22:52:48.293Z,83.00
2019-03-16T22:55:16.925Z,82.90
2019-03-16T22:57:46.532Z,82.80
2019-03-16T23:00:19.828Z,82.60
2019-03-16T23:02:48.911Z,82.30
2019-03-16T23:05:17.588Z,82.10
2019-03-16T23:07:46.153Z,81.90
2019-03-16T23:10:14.860Z,81.90
2019-03-16T23:12:43.554Z,81.70
2019-03-16T23:15:12.862Z,81.40
2019-03-16T23:17:41.405Z,81.20
2019-03-16T23:20:10.551Z,81.10
2019-03-16T23:22:40.248Z,81.00
2019-03-16T23:25:10.536Z,80.90
2019-03-16T23:27:39.057Z,80.80
2019-03-16T23:30:10.094Z,80.80
2019-03-16T23:32:38.707Z,80.80
2019-03-16T23:35:15.555Z,80.90
2019-03-16T23:37:53.832Z,81.80
2019-03-16T23:40:23.398Z,80.80
2019-03-16T23:42:51.986Z,80.90
2019-03-16T23:45:20.717Z,81.10
2019-03-16T23:47:49.391Z,81.00
2019-03-16T23:50:17.944Z,80.90
2019-03-16T23:52:47.466Z,81.10
2019-03-16T23:55:16.105Z,81.20
2019-03-16T23:57:45.686Z,81.30
